Lakeville, Massachusetts
Current Conditions -  °F | °C
As of 9:52 PM on Friday 21 Nov 2014 (Local Time) from KTAN Reporting Station
Clear Clear  
Wind Chill: 19°   Ceiling: Unl
Heat Index: 27°   Visibility: 10mi
Dew Point:   Wind: 8mph
Humidity: 45%   Direction: 280°W
Pressure: 30.41"   Gusts: NA
Location:  41.85°N, 70.95°W
Report Text: KTAN 220252Z AUTO 28007KT 10SM CLR M03/M13 A3041 RMK AO2 SLP298 T10281133 51021
Loading
Personal Weather Stations






























Interactive Weather Map New forecast layout! Learn more

10-Day Weather Forecast

Advertisements
Track Severe Weather on mobile